KAFO

Afton Municipal Airport

Afton, Wyoming, USA
METAR KAFO 280035Z AUTO 31008KT 10SM SCT080 13/07 A3005 RMK AO2 LTG DSNT S
Observed Flight Rules
May-28 @ 00:35 UTC (24 minutes ago) Visual Flight Rules
Wind Visibility Clouds
310° at 8 knots 10 miles
  • Scattered at 8,000' AGL
Temperatures Readings
Current 13°C / 55°F
Dewpoint 7°C / 45°F
Humidity 67%
Altimeter 30.05" Hg
Pressure 1018 hPa
Elevation 1897
METAR KAFO 280035Z AUTO 31008KT 10SM SCT080 13/07 A3005 RMK AO2 LTG DSNT S
Observed Flight Rules
May-28 @ 00:35 UTC
(24 minutes ago)
VFR
Wind Visibility
310° at 8 knots 10 miles
Clouds
  • Scattered at 8,000' AGL
Temperature Dewpoint
13°C / 55°F 7°C / 45°F
Humidity Altimeter Pressure
67% 30.05" Hg 1018 hPa